Arthog, United Kingdom
Current Conditions -  °F | °C
As of 7:50 AM on Friday 31 Oct 2014 (Local Time) from EGOV Reporting Station
Overcast Overcast  
Wind Chill: 61°   Ceiling: 20000
Heat Index: 61°   Visibility: 6mi
Dew Point: 59°   Wind: 26mph
Humidity: 94%   Direction: 170°S
Pressure: 29.8"   Gusts: NA
Location:  52.71°N, 4.01°W
Report Text: EGOV 310750Z 17023KT 9999 FEW020 OVC200 16/15 Q1009 BLU NOSIG
Loading
Personal Weather Stations






























Interactive Weather Map
Tropical Storm Tracking
New forecast layout! Learn more

10-Day Weather Forecast

Advertisements
Track Severe Weather on mobile